sensor_id;sensor_type;location;lat;lon;timestamp;P1;durP1;ratioP1;P2;durP2;ratioP2
3433;SDS011;1730;41.932;25.548;2023-04-24T00:00:22;6.47;;;5.77;;
3433;SDS011;1730;41.932;25.548;2023-04-24T00:02:48;6.83;;;5.50;;
3433;SDS011;1730;41.932;25.548;2023-04-24T00:05:15;8.37;;;5.83;;
3433;SDS011;1730;41.932;25.548;2023-04-24T00:07:42;7.47;;;6.23;;
3433;SDS011;1730;41.932;25.548;2023-04-24T00:10:11;6.77;;;5.90;;
3433;SDS011;1730;41.932;25.548;2023-04-24T00:12:37;9.50;;;6.07;;
3433;SDS011;1730;41.932;25.548;2023-04-24T00:15:03;11.23;;;5.60;;
3433;SDS011;1730;41.932;25.548;2023-04-24T00:17:30;6.27;;;5.67;;
3433;SDS011;1730;41.932;25.548;2023-04-24T00:19:55;7.27;;;5.40;;
3433;SDS011;1730;41.932;25.548;2023-04-24T00:22:27;12.17;;;5.67;;
3433;SDS011;1730;41.932;25.548;2023-04-24T00:24:53;6.83;;;5.50;;
3433;SDS011;1730;41.932;25.548;2023-04-24T00:27:19;6.43;;;5.10;;
3433;SDS011;1730;41.932;25.548;2023-04-24T00:29:44;7.17;;;6.00;;
3433;SDS011;1730;41.932;25.548;2023-04-24T00:32:10;10.90;;;5.40;;
3433;SDS011;1730;41.932;25.548;2023-04-24T00:34:36;6.30;;;5.80;;
3433;SDS011;1730;41.932;25.548;2023-04-24T00:37:01;6.77;;;6.07;;
3433;SDS011;1730;41.932;25.548;2023-04-24T00:39:27;5.97;;;5.40;;
3433;SDS011;1730;41.932;25.548;2023-04-24T00:41:53;9.90;;;7.03;;
3433;SDS011;1730;41.932;25.548;2023-04-24T00:44:18;12.53;;;6.20;;
3433;SDS011;1730;41.932;25.548;2023-04-24T00:46:44;8.33;;;5.47;;
3433;SDS011;1730;41.932;25.548;2023-04-24T00:49:11;5.80;;;5.30;;
3433;SDS011;1730;41.932;25.548;2023-04-24T00:51:37;9.00;;;5.50;;
3433;SDS011;1730;41.932;25.548;2023-04-24T00:54:02;5.93;;;5.17;;
3433;SDS011;1730;41.932;25.548;2023-04-24T00:56:28;7.80;;;5.50;;
3433;SDS011;1730;41.932;25.548;2023-04-24T00:58:54;6.33;;;5.73;;
3433;SDS011;1730;41.932;25.548;2023-04-24T01:01:21;7.30;;;6.00;;
3433;SDS011;1730;41.932;25.548;2023-04-24T01:03:47;7.17;;;5.20;;
3433;SDS011;1730;41.932;25.548;2023-04-24T01:06:15;12.50;;;7.20;;
3433;SDS011;1730;41.932;25.548;2023-04-24T01:08:40;9.00;;;6.27;;
3433;SDS011;1730;41.932;25.548;2023-04-24T01:11:06;8.67;;;6.50;;
3433;SDS011;1730;41.932;25.548;2023-04-24T01:13:32;5.97;;;5.50;;
3433;SDS011;1730;41.932;25.548;2023-04-24T01:15:58;5.90;;;5.30;;
3433;SDS011;1730;41.932;25.548;2023-04-24T01:18:25;7.13;;;6.50;;
3433;SDS011;1730;41.932;25.548;2023-04-24T01:20:53;7.63;;;6.87;;
3433;SDS011;1730;41.932;25.548;2023-04-24T01:23:21;8.27;;;6.43;;
3433;SDS011;1730;41.932;25.548;2023-04-24T01:25:47;10.60;;;5.70;;
3433;SDS011;1730;41.932;25.548;2023-04-24T01:28:14;8.40;;;7.63;;
3433;SDS011;1730;41.932;25.548;2023-04-24T01:30:39;6.77;;;6.20;;
3433;SDS011;1730;41.932;25.548;2023-04-24T01:33:05;6.33;;;5.77;;
3433;SDS011;1730;41.932;25.548;2023-04-24T01:35:31;7.03;;;6.47;;
3433;SDS011;1730;41.932;25.548;2023-04-24T01:37:57;7.03;;;6.30;;
3433;SDS011;1730;41.932;25.548;2023-04-24T01:40:24;8.80;;;5.83;;
3433;SDS011;1730;41.932;25.548;2023-04-24T01:42:49;9.03;;;6.97;;
3433;SDS011;1730;41.932;25.548;2023-04-24T01:45:15;7.20;;;6.60;;
3433;SDS011;1730;41.932;25.548;2023-04-24T01:47:41;7.37;;;6.87;;
3433;SDS011;1730;41.932;25.548;2023-04-24T01:50:07;9.63;;;6.60;;
3433;SDS011;1730;41.932;25.548;2023-04-24T01:52:33;11.83;;;7.53;;
3433;SDS011;1730;41.932;25.548;2023-04-24T01:55:01;13.20;;;7.47;;
3433;SDS011;1730;41.932;25.548;2023-04-24T01:57:27;8.47;;;7.67;;
3433;SDS011;1730;41.932;25.548;2023-04-24T01:59:55;8.23;;;7.53;;
3433;SDS011;1730;41.932;25.548;2023-04-24T02:02:21;7.50;;;6.80;;
3433;SDS011;1730;41.932;25.548;2023-04-24T02:04:49;7.87;;;6.90;;
3433;SDS011;1730;41.932;25.548;2023-04-24T02:07:15;9.43;;;7.80;;
3433;SDS011;1730;41.932;25.548;2023-04-24T02:09:40;9.23;;;7.30;;
3433;SDS011;1730;41.932;25.548;2023-04-24T02:12:06;9.00;;;7.63;;
3433;SDS011;1730;41.932;25.548;2023-04-24T02:14:32;10.70;;;6.23;;
3433;SDS011;1730;41.932;25.548;2023-04-24T02:16:57;8.00;;;7.23;;
3433;SDS011;1730;41.932;25.548;2023-04-24T02:19:23;8.90;;;6.70;;
3433;SDS011;1730;41.932;25.548;2023-04-24T02:21:48;8.33;;;7.00;;
3433;SDS011;1730;41.932;25.548;2023-04-24T02:24:15;8.17;;;7.37;;
3433;SDS011;1730;41.932;25.548;2023-04-24T02:26:42;9.10;;;7.27;;
3433;SDS011;1730;41.932;25.548;2023-04-24T02:29:07;7.87;;;7.10;;
3433;SDS011;1730;41.932;25.548;2023-04-24T02:31:33;9.33;;;7.70;;
3433;SDS011;1730;41.932;25.548;2023-04-24T02:33:58;12.13;;;9.80;;
3433;SDS011;1730;41.932;25.548;2023-04-24T02:36:24;11.20;;;7.67;;
3433;SDS011;1730;41.932;25.548;2023-04-24T02:38:50;8.97;;;7.60;;
3433;SDS011;1730;41.932;25.548;2023-04-24T02:41:15;9.87;;;7.67;;
3433;SDS011;1730;41.932;25.548;2023-04-24T02:43:41;10.07;;;6.83;;
3433;SDS011;1730;41.932;25.548;2023-04-24T02:46:06;7.40;;;6.70;;
3433;SDS011;1730;41.932;25.548;2023-04-24T02:48:32;8.17;;;7.30;;
3433;SDS011;1730;41.932;25.548;2023-04-24T02:50:57;7.40;;;6.90;;
3433;SDS011;1730;41.932;25.548;2023-04-24T02:53:23;8.13;;;7.43;;
3433;SDS011;1730;41.932;25.548;2023-04-24T02:55:48;8.40;;;6.97;;
3433;SDS011;1730;41.932;25.548;2023-04-24T02:58:14;8.37;;;7.23;;
3433;SDS011;1730;41.932;25.548;2023-04-24T03:00:40;10.63;;;8.87;;
3433;SDS011;1730;41.932;25.548;2023-04-24T03:03:06;7.77;;;7.23;;
3433;SDS011;1730;41.932;25.548;2023-04-24T03:05:32;8.50;;;7.80;;
3433;SDS011;1730;41.932;25.548;2023-04-24T03:07:57;7.97;;;7.17;;
3433;SDS011;1730;41.932;25.548;2023-04-24T03:10:23;9.23;;;7.63;;
3433;SDS011;1730;41.932;25.548;2023-04-24T03:12:49;14.10;;;7.50;;
3433;SDS011;1730;41.932;25.548;2023-04-24T03:15:15;18.53;;;8.90;;
3433;SDS011;1730;41.932;25.548;2023-04-24T03:17:40;9.23;;;8.07;;
3433;SDS011;1730;41.932;25.548;2023-04-24T03:20:06;19.23;;;7.77;;
3433;SDS011;1730;41.932;25.548;2023-04-24T03:22:33;7.70;;;6.63;;
3433;SDS011;1730;41.932;25.548;2023-04-24T03:24:59;9.13;;;8.23;;
3433;SDS011;1730;41.932;25.548;2023-04-24T03:27:25;10.90;;;8.60;;
3433;SDS011;1730;41.932;25.548;2023-04-24T03:29:51;9.97;;;7.43;;
3433;SDS011;1730;41.932;25.548;2023-04-24T03:32:20;9.20;;;8.33;;
3433;SDS011;1730;41.932;25.548;2023-04-24T03:34:46;9.30;;;8.40;;
3433;SDS011;1730;41.932;25.548;2023-04-24T03:37:11;11.87;;;8.87;;
3433;SDS011;1730;41.932;25.548;2023-04-24T03:39:37;13.83;;;8.50;;
3433;SDS011;1730;41.932;25.548;2023-04-24T03:42:02;10.93;;;9.47;;
3433;SDS011;1730;41.932;25.548;2023-04-24T03:44:28;13.90;;;10.90;;
3433;SDS011;1730;41.932;25.548;2023-04-24T03:46:53;11.23;;;9.43;;
3433;SDS011;1730;41.932;25.548;2023-04-24T03:49:19;14.00;;;8.60;;
3433;SDS011;1730;41.932;25.548;2023-04-24T03:51:45;10.40;;;8.13;;
3433;SDS011;1730;41.932;25.548;2023-04-24T03:54:11;9.20;;;8.30;;
3433;SDS011;1730;41.932;25.548;2023-04-24T03:56:36;13.90;;;9.07;;
3433;SDS011;1730;41.932;25.548;2023-04-24T03:59:02;9.07;;;8.27;;
3433;SDS011;1730;41.932;25.548;2023-04-24T04:01:27;9.70;;;8.70;;
3433;SDS011;1730;41.932;25.548;2023-04-24T04:03:53;9.70;;;8.43;;
3433;SDS011;1730;41.932;25.548;2023-04-24T04:06:19;8.83;;;8.03;;
3433;SDS011;1730;41.932;25.548;2023-04-24T04:08:46;9.80;;;7.63;;
3433;SDS011;1730;41.932;25.548;2023-04-24T04:11:11;8.37;;;7.60;;
3433;SDS011;1730;41.932;25.548;2023-04-24T04:13:37;9.20;;;8.50;;
3433;SDS011;1730;41.932;25.548;2023-04-24T04:16:02;9.17;;;8.27;;
3433;SDS011;1730;41.932;25.548;2023-04-24T04:18:28;9.30;;;8.40;;
3433;SDS011;1730;41.932;25.548;2023-04-24T04:20:53;9.73;;;8.10;;
3433;SDS011;1730;41.932;25.548;2023-04-24T04:23:19;9.07;;;7.73;;
3433;SDS011;1730;41.932;25.548;2023-04-24T04:25:44;13.27;;;9.40;;
3433;SDS011;1730;41.932;25.548;2023-04-24T04:28:10;10.50;;;8.87;;
3433;SDS011;1730;41.932;25.548;2023-04-24T04:30:35;10.47;;;8.97;;
3433;SDS011;1730;41.932;25.548;2023-04-24T04:33:03;9.83;;;8.83;;
3433;SDS011;1730;41.932;25.548;2023-04-24T04:35:29;10.73;;;9.63;;
3433;SDS011;1730;41.932;25.548;2023-04-24T04:37:54;11.57;;;9.80;;
3433;SDS011;1730;41.932;25.548;2023-04-24T04:40:21;11.43;;;9.23;;
3433;SDS011;1730;41.932;25.548;2023-04-24T04:42:46;9.93;;;8.77;;
3433;SDS011;1730;41.932;25.548;2023-04-24T04:45:12;12.63;;;9.37;;
3433;SDS011;1730;41.932;25.548;2023-04-24T04:47:38;9.70;;;8.83;;
3433;SDS011;1730;41.932;25.548;2023-04-24T04:50:04;11.43;;;8.77;;
3433;SDS011;1730;41.932;25.548;2023-04-24T04:52:30;9.83;;;8.83;;
3433;SDS011;1730;41.932;25.548;2023-04-24T04:54:56;11.10;;;8.53;;
3433;SDS011;1730;41.932;25.548;2023-04-24T04:57:22;8.97;;;7.93;;
3433;SDS011;1730;41.932;25.548;2023-04-24T04:59:47;10.57;;;9.40;;
3433;SDS011;1730;41.932;25.548;2023-04-24T05:02:13;9.83;;;8.80;;
3433;SDS011;1730;41.932;25.548;2023-04-24T05:04:38;8.50;;;7.87;;
3433;SDS011;1730;41.932;25.548;2023-04-24T05:07:04;13.27;;;7.93;;
3433;SDS011;1730;41.932;25.548;2023-04-24T05:09:29;10.50;;;7.70;;
3433;SDS011;1730;41.932;25.548;2023-04-24T05:11:55;14.33;;;8.00;;
3433;SDS011;1730;41.932;25.548;2023-04-24T05:14:21;14.47;;;7.87;;
3433;SDS011;1730;41.932;25.548;2023-04-24T05:16:47;7.67;;;6.83;;
3433;SDS011;1730;41.932;25.548;2023-04-24T05:19:12;13.60;;;7.87;;
3433;SDS011;1730;41.932;25.548;2023-04-24T05:21:39;14.47;;;8.90;;
3433;SDS011;1730;41.932;25.548;2023-04-24T05:24:05;7.43;;;6.77;;
3433;SDS011;1730;41.932;25.548;2023-04-24T05:26:31;11.37;;;7.50;;
3433;SDS011;1730;41.932;25.548;2023-04-24T05:28:56;8.33;;;7.50;;
3433;SDS011;1730;41.932;25.548;2023-04-24T05:31:22;8.40;;;7.67;;
3433;SDS011;1730;41.932;25.548;2023-04-24T05:33:47;8.43;;;7.70;;
3433;SDS011;1730;41.932;25.548;2023-04-24T05:36:13;15.40;;;9.70;;
3433;SDS011;1730;41.932;25.548;2023-04-24T05:38:38;11.47;;;7.40;;
3433;SDS011;1730;41.932;25.548;2023-04-24T05:41:04;11.33;;;9.30;;
3433;SDS011;1730;41.932;25.548;2023-04-24T05:43:29;9.00;;;8.20;;
3433;SDS011;1730;41.932;25.548;2023-04-24T05:45:55;11.27;;;9.50;;
3433;SDS011;1730;41.932;25.548;2023-04-24T05:48:20;17.83;;;15.63;;
3433;SDS011;1730;41.932;25.548;2023-04-24T05:50:47;14.27;;;8.93;;
3433;SDS011;1730;41.932;25.548;2023-04-24T05:53:13;10.00;;;7.27;;
3433;SDS011;1730;41.932;25.548;2023-04-24T05:55:38;7.47;;;6.80;;
3433;SDS011;1730;41.932;25.548;2023-04-24T05:58:04;14.90;;;7.77;;
3433;SDS011;1730;41.932;25.548;2023-04-24T06:00:30;8.73;;;7.60;;
3433;SDS011;1730;41.932;25.548;2023-04-24T06:02:56;7.63;;;7.00;;
3433;SDS011;1730;41.932;25.548;2023-04-24T06:05:21;13.27;;;7.60;;
3433;SDS011;1730;41.932;25.548;2023-04-24T06:07:47;9.10;;;7.97;;
3433;SDS011;1730;41.932;25.548;2023-04-24T06:10:13;8.40;;;7.70;;
3433;SDS011;1730;41.932;25.548;2023-04-24T06:12:39;9.30;;;8.20;;
3433;SDS011;1730;41.932;25.548;2023-04-24T06:15:04;9.67;;;8.27;;
3433;SDS011;1730;41.932;25.548;2023-04-24T06:17:30;8.90;;;7.80;;
3433;SDS011;1730;41.932;25.548;2023-04-24T06:19:57;10.60;;;9.50;;
3433;SDS011;1730;41.932;25.548;2023-04-24T06:22:22;9.40;;;8.07;;
3433;SDS011;1730;41.932;25.548;2023-04-24T06:24:48;11.70;;;9.20;;
3433;SDS011;1730;41.932;25.548;2023-04-24T06:27:13;9.10;;;8.13;;
3433;SDS011;1730;41.932;25.548;2023-04-24T06:29:39;11.67;;;8.17;;
3433;SDS011;1730;41.932;25.548;2023-04-24T06:32:05;12.93;;;8.97;;
3433;SDS011;1730;41.932;25.548;2023-04-24T06:34:30;11.97;;;8.50;;
3433;SDS011;1730;41.932;25.548;2023-04-24T06:36:57;14.03;;;9.70;;
3433;SDS011;1730;41.932;25.548;2023-04-24T06:39:24;14.83;;;8.87;;
3433;SDS011;1730;41.932;25.548;2023-04-24T06:41:49;8.77;;;7.87;;
3433;SDS011;1730;41.932;25.548;2023-04-24T06:44:15;7.73;;;7.03;;
3433;SDS011;1730;41.932;25.548;2023-04-24T06:46:41;11.73;;;7.20;;
3433;SDS011;1730;41.932;25.548;2023-04-24T06:49:07;7.87;;;7.27;;
3433;SDS011;1730;41.932;25.548;2023-04-24T06:51:32;8.13;;;7.03;;
3433;SDS011;1730;41.932;25.548;2023-04-24T06:53:58;20.07;;;6.97;;
3433;SDS011;1730;41.932;25.548;2023-04-24T06:56:24;8.80;;;6.77;;
3433;SDS011;1730;41.932;25.548;2023-04-24T06:58:50;12.27;;;7.03;;
3433;SDS011;1730;41.932;25.548;2023-04-24T07:01:16;7.93;;;7.20;;
3433;SDS011;1730;41.932;25.548;2023-04-24T07:03:42;12.03;;;6.57;;
3433;SDS011;1730;41.932;25.548;2023-04-24T07:06:09;6.97;;;6.47;;
3433;SDS011;1730;41.932;25.548;2023-04-24T07:08:36;9.27;;;7.60;;
3433;SDS011;1730;41.932;25.548;2023-04-24T07:11:02;25.20;;;7.33;;
3433;SDS011;1730;41.932;25.548;2023-04-24T07:13:27;11.87;;;6.73;;
3433;SDS011;1730;41.932;25.548;2023-04-24T07:15:53;7.50;;;6.80;;
3433;SDS011;1730;41.932;25.548;2023-04-24T07:18:23;7.30;;;6.50;;
3433;SDS011;1730;41.932;25.548;2023-04-24T07:20:48;9.40;;;6.70;;
3433;SDS011;1730;41.932;25.548;2023-04-24T07:23:18;8.00;;;7.40;;
3433;SDS011;1730;41.932;25.548;2023-04-24T07:25:44;9.03;;;7.27;;
3433;SDS011;1730;41.932;25.548;2023-04-24T07:28:10;7.27;;;6.57;;
3433;SDS011;1730;41.932;25.548;2023-04-24T07:30:35;7.30;;;6.70;;
3433;SDS011;1730;41.932;25.548;2023-04-24T07:33:01;6.90;;;6.20;;
3433;SDS011;1730;41.932;25.548;2023-04-24T07:35:26;10.10;;;6.67;;
3433;SDS011;1730;41.932;25.548;2023-04-24T07:37:55;7.57;;;6.67;;
3433;SDS011;1730;41.932;25.548;2023-04-24T07:40:21;10.97;;;7.07;;
3433;SDS011;1730;41.932;25.548;2023-04-24T07:42:48;8.97;;;6.33;;
3433;SDS011;1730;41.932;25.548;2023-04-24T07:45:14;7.73;;;6.33;;
3433;SDS011;1730;41.932;25.548;2023-04-24T07:47:43;9.47;;;6.73;;
3433;SDS011;1730;41.932;25.548;2023-04-24T07:50:10;7.17;;;6.67;;
3433;SDS011;1730;41.932;25.548;2023-04-24T07:52:37;6.50;;;5.77;;
3433;SDS011;1730;41.932;25.548;2023-04-24T07:55:03;7.10;;;6.60;;
3433;SDS011;1730;41.932;25.548;2023-04-24T07:57:30;11.23;;;6.83;;
3433;SDS011;1730;41.932;25.548;2023-04-24T07:59:55;6.60;;;6.20;;
3433;SDS011;1730;41.932;25.548;2023-04-24T08:02:20;6.70;;;6.10;;
3433;SDS011;1730;41.932;25.548;2023-04-24T08:04:51;7.43;;;6.70;;
3433;SDS011;1730;41.932;25.548;2023-04-24T08:07:19;7.47;;;5.80;;
3433;SDS011;1730;41.932;25.548;2023-04-24T08:09:45;6.80;;;6.20;;
3433;SDS011;1730;41.932;25.548;2023-04-24T08:12:10;6.57;;;5.80;;
3433;SDS011;1730;41.932;25.548;2023-04-24T08:14:36;6.67;;;6.17;;
3433;SDS011;1730;41.932;25.548;2023-04-24T08:17:01;6.80;;;6.20;;
3433;SDS011;1730;41.932;25.548;2023-04-24T08:19:28;11.47;;;6.57;;
3433;SDS011;1730;41.932;25.548;2023-04-24T08:21:54;6.90;;;6.20;;
3433;SDS011;1730;41.932;25.548;2023-04-24T08:24:19;7.23;;;6.53;;
3433;SDS011;1730;41.932;25.548;2023-04-24T08:26:45;9.57;;;7.93;;
3433;SDS011;1730;41.932;25.548;2023-04-24T08:29:10;6.47;;;6.07;;
3433;SDS011;1730;41.932;25.548;2023-04-24T08:31:36;7.73;;;6.60;;
3433;SDS011;1730;41.932;25.548;2023-04-24T08:34:01;8.30;;;6.13;;
3433;SDS011;1730;41.932;25.548;2023-04-24T08:36:27;8.50;;;6.17;;
3433;SDS011;1730;41.932;25.548;2023-04-24T08:38:53;6.57;;;6.17;;
3433;SDS011;1730;41.932;25.548;2023-04-24T08:41:18;8.27;;;6.20;;
3433;SDS011;1730;41.932;25.548;2023-04-24T08:43:45;7.50;;;6.27;;
3433;SDS011;1730;41.932;25.548;2023-04-24T08:46:12;6.00;;;5.50;;
3433;SDS011;1730;41.932;25.548;2023-04-24T08:48:38;6.37;;;5.73;;
3433;SDS011;1730;41.932;25.548;2023-04-24T08:51:05;5.20;;;4.90;;
3433;SDS011;1730;41.932;25.548;2023-04-24T08:53:32;8.03;;;5.97;;
3433;SDS011;1730;41.932;25.548;2023-04-24T08:55:58;5.40;;;5.10;;
3433;SDS011;1730;41.932;25.548;2023-04-24T08:58:26;5.73;;;5.43;;
3433;SDS011;1730;41.932;25.548;2023-04-24T09:00:55;6.00;;;5.50;;
3433;SDS011;1730;41.932;25.548;2023-04-24T09:03:21;6.83;;;6.00;;
3433;SDS011;1730;41.932;25.548;2023-04-24T09:05:47;5.80;;;5.40;;
3433;SDS011;1730;41.932;25.548;2023-04-24T09:08:16;5.27;;;4.90;;
3433;SDS011;1730;41.932;25.548;2023-04-24T09:10:44;6.50;;;5.87;;
3433;SDS011;1730;41.932;25.548;2023-04-24T09:13:09;7.30;;;6.60;;
3433;SDS011;1730;41.932;25.548;2023-04-24T09:15:36;6.30;;;5.73;;
3433;SDS011;1730;41.932;25.548;2023-04-24T09:18:03;6.10;;;5.50;;
3433;SDS011;1730;41.932;25.548;2023-04-24T09:20:29;14.63;;;9.90;;
3433;SDS011;1730;41.932;25.548;2023-04-24T09:22:56;5.67;;;5.13;;
3433;SDS011;1730;41.932;25.548;2023-04-24T09:25:24;15.00;;;6.57;;
3433;SDS011;1730;41.932;25.548;2023-04-24T09:27:58;6.20;;;5.77;;
3433;SDS011;1730;41.932;25.548;2023-04-24T09:30:26;4.93;;;4.50;;
3433;SDS011;1730;41.932;25.548;2023-04-24T09:33:12;5.20;;;4.80;;
3433;SDS011;1730;41.932;25.548;2023-04-24T09:35:50;9.93;;;4.93;;
3433;SDS011;1730;41.932;25.548;2023-04-24T09:38:17;8.57;;;6.40;;
3433;SDS011;1730;41.932;25.548;2023-04-24T09:40:42;5.23;;;4.80;;
3433;SDS011;1730;41.932;25.548;2023-04-24T09:43:11;9.70;;;5.37;;
3433;SDS011;1730;41.932;25.548;2023-04-24T09:45:37;14.73;;;5.57;;
3433;SDS011;1730;41.932;25.548;2023-04-24T09:48:04;5.53;;;5.13;;
3433;SDS011;1730;41.932;25.548;2023-04-24T09:50:31;7.77;;;5.53;;
3433;SDS011;1730;41.932;25.548;2023-04-24T09:53:01;5.30;;;4.60;;
3433;SDS011;1730;41.932;25.548;2023-04-24T09:55:29;4.73;;;4.53;;
3433;SDS011;1730;41.932;25.548;2023-04-24T09:57:55;5.50;;;5.10;;
3433;SDS011;1730;41.932;25.548;2023-04-24T10:00:31;5.40;;;4.90;;
3433;SDS011;1730;41.932;25.548;2023-04-24T10:03:04;5.33;;;4.80;;
3433;SDS011;1730;41.932;25.548;2023-04-24T10:05:34;4.93;;;4.50;;
3433;SDS011;1730;41.932;25.548;2023-04-24T10:10:40;6.60;;;4.30;;
3433;SDS011;1730;41.932;25.548;2023-04-24T10:13:07;10.80;;;4.13;;
3433;SDS011;1730;41.932;25.548;2023-04-24T10:15:35;5.60;;;4.70;;
3433;SDS011;1730;41.932;25.548;2023-04-24T10:18:02;10.40;;;5.43;;
3433;SDS011;1730;41.932;25.548;2023-04-24T10:20:31;9.17;;;5.40;;
3433;SDS011;1730;41.932;25.548;2023-04-24T10:22:58;5.37;;;4.97;;
3433;SDS011;1730;41.932;25.548;2023-04-24T10:25:29;4.83;;;4.30;;
3433;SDS011;1730;41.932;25.548;2023-04-24T10:27:57;6.23;;;4.77;;
3433;SDS011;1730;41.932;25.548;2023-04-24T10:30:27;12.87;;;5.33;;
3433;SDS011;1730;41.932;25.548;2023-04-24T10:32:54;6.63;;;5.17;;
3433;SDS011;1730;41.932;25.548;2023-04-24T10:35:20;8.30;;;4.90;;
3433;SDS011;1730;41.932;25.548;2023-04-24T10:38:06;5.30;;;4.77;;
3433;SDS011;1730;41.932;25.548;2023-04-24T10:40:35;10.30;;;4.90;;
3433;SDS011;1730;41.932;25.548;2023-04-24T10:43:05;5.00;;;4.70;;
3433;SDS011;1730;41.932;25.548;2023-04-24T10:45:33;7.40;;;6.67;;
3433;SDS011;1730;41.932;25.548;2023-04-24T10:48:02;4.80;;;4.40;;
3433;SDS011;1730;41.932;25.548;2023-04-24T10:50:47;4.70;;;4.30;;
3433;SDS011;1730;41.932;25.548;2023-04-24T10:53:18;5.60;;;5.10;;
3433;SDS011;1730;41.932;25.548;2023-04-24T10:55:51;5.10;;;4.60;;
3433;SDS011;1730;41.932;25.548;2023-04-24T10:58:23;5.30;;;4.67;;
3433;SDS011;1730;41.932;25.548;2023-04-24T11:00:56;10.80;;;4.90;;
3433;SDS011;1730;41.932;25.548;2023-04-24T11:03:31;5.03;;;4.50;;
3433;SDS011;1730;41.932;25.548;2023-04-24T11:11:02;5.33;;;4.93;;
3433;SDS011;1730;41.932;25.548;2023-04-24T11:19:17;4.97;;;4.67;;
3433;SDS011;1730;41.932;25.548;2023-04-24T11:24:39;7.47;;;5.30;;
3433;SDS011;1730;41.932;25.548;2023-04-24T11:27:17;5.00;;;4.60;;
3433;SDS011;1730;41.932;25.548;2023-04-24T11:40:15;4.30;;;4.00;;
3433;SDS011;1730;41.932;25.548;2023-04-24T11:42:43;6.97;;;3.83;;
3433;SDS011;1730;41.932;25.548;2023-04-24T11:45:10;4.50;;;4.20;;
3433;SDS011;1730;41.932;25.548;2023-04-24T11:47:38;4.70;;;4.30;;
3433;SDS011;1730;41.932;25.548;2023-04-24T11:50:06;8.93;;;4.77;;
3433;SDS011;1730;41.932;25.548;2023-04-24T11:52:39;4.90;;;4.47;;
3433;SDS011;1730;41.932;25.548;2023-04-24T11:55:27;4.90;;;4.40;;
3433;SDS011;1730;41.932;25.548;2023-04-24T11:57:58;11.20;;;5.10;;
3433;SDS011;1730;41.932;25.548;2023-04-24T12:00:25;4.83;;;4.53;;
3433;SDS011;1730;41.932;25.548;2023-04-24T12:05:30;7.97;;;5.07;;
3433;SDS011;1730;41.932;25.548;2023-04-24T12:07:56;7.87;;;5.20;;
3433;SDS011;1730;41.932;25.548;2023-04-24T12:10:22;7.10;;;5.00;;
3433;SDS011;1730;41.932;25.548;2023-04-24T12:12:49;5.03;;;4.37;;
3433;SDS011;1730;41.932;25.548;2023-04-24T12:15:17;4.73;;;4.43;;
3433;SDS011;1730;41.932;25.548;2023-04-24T12:17:44;5.33;;;4.70;;
3433;SDS011;1730;41.932;25.548;2023-04-24T12:20:10;4.73;;;4.43;;
3433;SDS011;1730;41.932;25.548;2023-04-24T12:25:19;5.80;;;4.50;;
3433;SDS011;1730;41.932;25.548;2023-04-24T12:27:46;4.60;;;4.20;;
3433;SDS011;1730;41.932;25.548;2023-04-24T12:30:19;4.63;;;4.33;;
3433;SDS011;1730;41.932;25.548;2023-04-24T12:32:45;7.10;;;4.73;;
3433;SDS011;1730;41.932;25.548;2023-04-24T12:35:22;4.87;;;4.20;;
3433;SDS011;1730;41.932;25.548;2023-04-24T12:37:48;6.40;;;4.30;;
3433;SDS011;1730;41.932;25.548;2023-04-24T12:40:15;5.00;;;4.50;;
3433;SDS011;1730;41.932;25.548;2023-04-24T12:42:42;4.77;;;4.30;;
3433;SDS011;1730;41.932;25.548;2023-04-24T12:45:09;5.00;;;4.43;;
3433;SDS011;1730;41.932;25.548;2023-04-24T12:47:37;5.53;;;4.40;;
3433;SDS011;1730;41.932;25.548;2023-04-24T12:50:04;5.00;;;4.50;;
3433;SDS011;1730;41.932;25.548;2023-04-24T12:52:31;4.30;;;4.00;;
3433;SDS011;1730;41.932;25.548;2023-04-24T12:54:57;9.00;;;4.70;;
3433;SDS011;1730;41.932;25.548;2023-04-24T12:57:25;10.30;;;4.30;;
3433;SDS011;1730;41.932;25.548;2023-04-24T12:59:54;6.33;;;4.03;;
3433;SDS011;1730;41.932;25.548;2023-04-24T13:02:24;4.83;;;4.30;;
3433;SDS011;1730;41.932;25.548;2023-04-24T13:04:50;6.70;;;5.20;;
3433;SDS011;1730;41.932;25.548;2023-04-24T13:07:17;7.63;;;5.40;;
3433;SDS011;1730;41.932;25.548;2023-04-24T13:09:43;4.80;;;4.47;;
3433;SDS011;1730;41.932;25.548;2023-04-24T13:12:11;6.77;;;4.80;;
3433;SDS011;1730;41.932;25.548;2023-04-24T13:14:37;4.57;;;4.27;;
3433;SDS011;1730;41.932;25.548;2023-04-24T13:17:03;5.23;;;3.97;;
3433;SDS011;1730;41.932;25.548;2023-04-24T13:19:29;3.93;;;3.63;;
3433;SDS011;1730;41.932;25.548;2023-04-24T13:22:00;4.40;;;4.13;;
3433;SDS011;1730;41.932;25.548;2023-04-24T13:24:25;4.50;;;4.20;;
3433;SDS011;1730;41.932;25.548;2023-04-24T13:26:54;5.10;;;4.73;;
3433;SDS011;1730;41.932;25.548;2023-04-24T13:29:21;4.70;;;4.40;;
3433;SDS011;1730;41.932;25.548;2023-04-24T13:31:49;5.67;;;5.17;;
3433;SDS011;1730;41.932;25.548;2023-04-24T13:34:16;5.57;;;4.80;;
3433;SDS011;1730;41.932;25.548;2023-04-24T13:36:45;9.87;;;5.33;;
3433;SDS011;1730;41.932;25.548;2023-04-24T13:39:11;6.83;;;4.67;;
3433;SDS011;1730;41.932;25.548;2023-04-24T13:41:36;5.77;;;5.20;;
3433;SDS011;1730;41.932;25.548;2023-04-24T13:44:02;4.70;;;4.40;;
3433;SDS011;1730;41.932;25.548;2023-04-24T13:46:29;5.00;;;4.70;;
3433;SDS011;1730;41.932;25.548;2023-04-24T13:48:55;4.07;;;3.83;;
3433;SDS011;1730;41.932;25.548;2023-04-24T13:51:23;6.37;;;4.47;;
3433;SDS011;1730;41.932;25.548;2023-04-24T13:53:51;6.40;;;4.67;;
3433;SDS011;1730;41.932;25.548;2023-04-24T13:56:16;4.07;;;3.80;;
3433;SDS011;1730;41.932;25.548;2023-04-24T13:58:41;3.43;;;3.10;;
3433;SDS011;1730;41.932;25.548;2023-04-24T14:01:07;5.60;;;4.10;;
3433;SDS011;1730;41.932;25.548;2023-04-24T14:03:33;3.77;;;3.47;;
3433;SDS011;1730;41.932;25.548;2023-04-24T14:05:59;3.30;;;3.00;;
3433;SDS011;1730;41.932;25.548;2023-04-24T14:08:24;3.07;;;2.80;;
3433;SDS011;1730;41.932;25.548;2023-04-24T14:10:50;2.73;;;2.63;;
3433;SDS011;1730;41.932;25.548;2023-04-24T14:13:16;3.17;;;2.97;;
3433;SDS011;1730;41.932;25.548;2023-04-24T14:15:42;3.73;;;3.43;;
3433;SDS011;1730;41.932;25.548;2023-04-24T14:18:08;4.30;;;3.90;;
3433;SDS011;1730;41.932;25.548;2023-04-24T14:20:33;3.63;;;3.30;;
3433;SDS011;1730;41.932;25.548;2023-04-24T14:22:59;4.70;;;3.37;;
3433;SDS011;1730;41.932;25.548;2023-04-24T14:25:25;3.80;;;3.50;;
3433;SDS011;1730;41.932;25.548;2023-04-24T14:27:50;4.90;;;4.50;;
3433;SDS011;1730;41.932;25.548;2023-04-24T14:30:16;4.03;;;3.70;;
3433;SDS011;1730;41.932;25.548;2023-04-24T14:32:42;3.40;;;3.20;;
3433;SDS011;1730;41.932;25.548;2023-04-24T14:35:08;3.43;;;3.13;;
3433;SDS011;1730;41.932;25.548;2023-04-24T14:37:33;3.67;;;3.37;;
3433;SDS011;1730;41.932;25.548;2023-04-24T14:39:59;3.80;;;3.60;;
3433;SDS011;1730;41.932;25.548;2023-04-24T14:42:25;4.33;;;3.93;;
3433;SDS011;1730;41.932;25.548;2023-04-24T14:44:50;9.93;;;5.03;;
3433;SDS011;1730;41.932;25.548;2023-04-24T14:47:16;4.37;;;4.07;;
3433;SDS011;1730;41.932;25.548;2023-04-24T14:49:46;12.20;;;4.53;;
3433;SDS011;1730;41.932;25.548;2023-04-24T14:52:11;7.13;;;4.03;;
3433;SDS011;1730;41.932;25.548;2023-04-24T14:54:37;5.23;;;4.73;;
3433;SDS011;1730;41.932;25.548;2023-04-24T14:57:02;9.67;;;4.70;;
3433;SDS011;1730;41.932;25.548;2023-04-24T14:59:28;5.63;;;3.80;;
3433;SDS011;1730;41.932;25.548;2023-04-24T15:01:54;6.43;;;4.40;;
3433;SDS011;1730;41.932;25.548;2023-04-24T15:04:23;5.27;;;4.63;;
3433;SDS011;1730;41.932;25.548;2023-04-24T15:06:51;5.43;;;3.90;;
3433;SDS011;1730;41.932;25.548;2023-04-24T15:09:18;11.80;;;4.87;;
3433;SDS011;1730;41.932;25.548;2023-04-24T15:11:44;4.70;;;4.40;;
3433;SDS011;1730;41.932;25.548;2023-04-24T15:14:10;4.70;;;4.40;;
3433;SDS011;1730;41.932;25.548;2023-04-24T15:16:35;4.57;;;4.17;;
3433;SDS011;1730;41.932;25.548;2023-04-24T15:19:01;5.70;;;4.73;;
3433;SDS011;1730;41.932;25.548;2023-04-24T15:21:27;5.07;;;4.73;;
3433;SDS011;1730;41.932;25.548;2023-04-24T15:23:52;8.50;;;5.33;;
3433;SDS011;1730;41.932;25.548;2023-04-24T15:26:18;6.67;;;6.10;;